Time;durP1;ratioP1;P1;durP2;ratioP2;P2;SDS_P1;SDS_P2;PMS_P1;PMS_P2;Temp;Humidity;BMP_temperature;BMP_pressure;BME280_temperature;BME280_humidity;BME280_pressure;Samples;Min_cycle;Max_cycle;Signal;HPM_P1;HPM_P2
2023/08/17 00:00:56;;;;;;;14.45;10.13;;;21.80;99.90;;;;;;6215958;23;20107;-79
2023/08/17 00:03:23;;;;;;;13.80;10.68;;;21.80;99.90;;;;;;6219742;23;20048;-79
2023/08/17 00:05:50;;;;;;;14.77;10.00;;;21.80;99.90;;;;;;6219805;23;20377;-79
2023/08/17 00:08:58;;;;;;;15.85;10.57;;;21.80;99.90;;;;;;6219055;23;20012;-79
2023/08/17 00:15:03;;;;;;;15.25;10.90;;;21.70;99.90;;;;;;6218114;23;20764;-79
2023/08/17 00:21:58;;;;;;;15.63;9.57;;;21.60;99.90;;;;;;6215381;23;20471;-79
2023/08/17 00:29:17;;;;;;;15.18;9.07;;;21.70;99.90;;;;;;6244151;23;20790;-79
2023/08/17 00:31:44;;;;;;;14.25;9.93;;;21.70;99.90;;;;;;6217580;23;20022;-79
2023/08/17 00:34:12;;;;;;;15.23;9.40;;;21.70;99.90;;;;;;6245924;23;20092;-79
2023/08/17 00:36:39;;;;;;;13.35;9.55;;;21.70;99.90;;;;;;6219365;23;20028;-78
2023/08/17 00:39:06;;;;;;;13.63;9.93;;;21.70;99.90;;;;;;6193768;23;20020;-79
2023/08/17 00:41:34;;;;;;;14.93;9.93;;;21.60;99.90;;;;;;6192801;23;20058;-79
2023/08/17 00:44:01;;;;;;;12.02;9.32;;;21.60;99.90;;;;;;6217771;23;20395;-79
2023/08/17 00:46:30;;;;;;;12.82;9.75;;;21.60;99.90;;;;;;6242217;23;20032;-79
2023/08/17 00:48:58;;;;;;;15.10;9.77;;;21.60;99.90;;;;;;6217788;23;20027;-79
2023/08/17 00:51:26;;;;;;;13.90;9.85;;;21.60;99.90;;;;;;6244541;23;20066;-79
2023/08/17 00:53:57;;;;;;;13.38;9.85;;;21.70;99.90;;;;;;6192579;23;20058;-79
2023/08/17 00:56:25;;;;;;;13.68;10.10;;;21.70;99.90;;;;;;6217627;23;20107;-79
2023/08/17 00:58:53;;;;;;;13.93;9.52;;;21.70;99.90;;;;;;6244394;23;20020;-79
2023/08/17 01:01:21;;;;;;;13.98;9.90;;;21.70;99.90;;;;;;6217894;23;20024;-79
2023/08/17 01:03:48;;;;;;;17.58;11.05;;;21.70;99.90;;;;;;6217548;23;20027;-79
2023/08/17 01:06:16;;;;;;;17.13;10.15;;;21.70;99.90;;;;;;6218114;23;20039;-79
2023/08/17 01:08:44;;;;;;;14.10;9.90;;;21.70;99.90;;;;;;6218453;23;20415;-79
2023/08/17 01:11:20;;;;;;;13.65;9.55;;;21.70;99.90;;;;;;6191232;23;20111;-79
2023/08/17 01:13:59;;;;;;;11.55;9.15;;;21.70;99.90;;;;;;6193175;23;20086;-79
2023/08/17 01:16:30;;;;;;;13.57;8.95;;;21.60;99.90;;;;;;6218726;23;20020;-79
2023/08/17 01:19:00;;;;;;;12.63;9.32;;;21.70;99.90;;;;;;6243956;23;20012;-79
2023/08/17 01:21:40;;;;;;;13.07;9.90;;;21.60;99.90;;;;;;6192902;23;20106;-79
2023/08/17 01:24:08;;;;;;;17.25;10.77;;;21.60;99.90;;;;;;6216842;23;20074;-79
2023/08/17 01:26:35;;;;;;;15.80;10.52;;;21.60;99.90;;;;;;6192680;23;20047;-79
2023/08/17 01:29:03;;;;;;;13.27;9.57;;;21.60;99.90;;;;;;6193124;23;20390;-79
2023/08/17 01:32:13;;;;;;;15.35;10.10;;;21.70;99.90;;;;;;6217485;23;20027;-79
2023/08/17 01:34:51;;;;;;;14.55;9.55;;;21.50;99.90;;;;;;6182776;23;20020;-79
2023/08/17 01:37:22;;;;;;;14.82;10.27;;;21.60;99.90;;;;;;6216406;23;20086;-79
2023/08/17 01:39:54;;;;;;;15.40;9.73;;;21.50;99.90;;;;;;6217439;22;20027;-79
2023/08/17 01:42:23;;;;;;;13.15;10.10;;;21.60;99.90;;;;;;6217385;23;20016;-79
2023/08/17 01:44:50;;;;;;;11.82;8.98;;;21.60;99.90;;;;;;6192272;23;20876;-79
2023/08/17 01:47:22;;;;;;;12.77;8.35;;;21.50;99.90;;;;;;6217061;23;20098;-79
2023/08/17 01:49:50;;;;;;;13.02;8.63;;;21.50;99.90;;;;;;6216957;23;20058;-79
2023/08/17 01:52:17;;;;;;;12.82;8.95;;;21.50;99.90;;;;;;6216276;23;20047;-78
2023/08/17 01:54:44;;;;;;;12.68;8.55;;;21.50;99.90;;;;;;6217653;23;20016;-79
2023/08/17 01:57:12;;;;;;;12.07;8.45;;;21.50;99.90;;;;;;6217682;23;20668;-78
2023/08/17 01:59:39;;;;;;;10.85;8.13;;;21.50;99.90;;;;;;6192228;23;20838;-79
2023/08/17 02:02:08;;;;;;;11.48;8.18;;;21.40;99.90;;;;;;6215752;23;20099;-80
2023/08/17 02:04:35;;;;;;;10.07;8.25;;;21.50;99.90;;;;;;6192541;23;20016;-79
2023/08/17 02:07:03;;;;;;;10.82;7.95;;;21.40;99.90;;;;;;6217296;23;20110;-79
2023/08/17 02:09:30;;;;;;;10.02;6.68;;;21.40;99.90;;;;;;6217090;23;20432;-78
2023/08/17 02:11:57;;;;;;;10.10;7.65;;;21.40;99.90;;;;;;6217593;23;20032;-79
2023/08/17 02:14:24;;;;;;;10.85;7.57;;;21.40;99.90;;;;;;6191879;23;20020;-79
2023/08/17 02:16:52;;;;;;;11.43;8.23;;;21.40;99.90;;;;;;6216921;23;20090;-79
2023/08/17 02:19:19;;;;;;;10.93;7.95;;;21.40;99.90;;;;;;6192858;23;20051;-79
2023/08/17 02:21:47;;;;;;;12.40;7.60;;;21.40;99.90;;;;;;6217315;23;20419;-79
2023/08/17 02:24:15;;;;;;;10.23;6.72;;;21.40;99.90;;;;;;6216455;23;20055;-79
2023/08/17 02:26:42;;;;;;;10.02;7.47;;;21.40;99.90;;;;;;6191365;23;20070;-79
2023/08/17 02:29:09;;;;;;;10.85;8.20;;;21.40;99.90;;;;;;6243126;23;20095;-79
2023/08/17 02:31:36;;;;;;;12.00;8.00;;;21.40;99.90;;;;;;6204540;23;20044;-79
2023/08/17 02:34:05;;;;;;;11.85;7.25;;;21.40;99.90;;;;;;6217547;23;20070;-79
2023/08/17 02:36:32;;;;;;;11.52;7.68;;;21.40;99.90;;;;;;6216581;23;20090;-79
2023/08/17 02:39:03;;;;;;;10.43;6.82;;;21.40;99.90;;;;;;6217567;23;20020;-79
2023/08/17 02:41:31;;;;;;;10.25;7.90;;;21.40;99.90;;;;;;6216538;23;20080;-79
2023/08/17 02:44:01;;;;;;;9.75;6.97;;;21.30;99.90;;;;;;6192622;23;20024;-80
2023/08/17 02:46:28;;;;;;;11.23;7.38;;;21.30;99.90;;;;;;6191687;23;20048;-79
2023/08/17 02:48:55;;;;;;;9.55;7.22;;;21.40;99.90;;;;;;6214778;23;20444;-79
2023/08/17 02:51:23;;;;;;;9.75;7.28;;;21.40;99.90;;;;;;6191793;23;20016;-79
2023/08/17 02:53:50;;;;;;;9.15;6.85;;;21.40;99.90;;;;;;6217421;23;20020;-79
2023/08/17 02:56:17;;;;;;;9.98;7.50;;;21.40;99.90;;;;;;6217250;23;20044;-79
2023/08/17 02:58:44;;;;;;;9.63;7.15;;;21.40;99.90;;;;;;6191521;23;20350;-79
2023/08/17 03:01:11;;;;;;;10.35;7.03;;;21.30;99.90;;;;;;6216912;23;20051;-80
2023/08/17 03:03:39;;;;;;;9.65;7.22;;;21.30;99.90;;;;;;6215807;23;20027;-80
2023/08/17 03:06:07;;;;;;;9.50;7.32;;;21.30;99.90;;;;;;6191962;23;20051;-80
2023/08/17 03:08:34;;;;;;;9.70;7.60;;;21.30;99.90;;;;;;6216044;23;20110;-80
2023/08/17 03:11:07;;;;;;;11.75;6.80;;;21.30;99.90;;;;;;6216792;23;20020;-80
2023/08/17 03:13:34;;;;;;;12.82;7.93;;;21.30;99.90;;;;;;6216494;23;20016;-80
2023/08/17 03:16:01;;;;;;;11.70;7.63;;;21.30;99.90;;;;;;6193074;23;20107;-80
2023/08/17 03:18:29;;;;;;;10.52;7.15;;;21.30;99.90;;;;;;6216553;23;20044;-80
2023/08/17 03:20:56;;;;;;;9.23;7.45;;;21.20;99.90;;;;;;6216537;23;20039;-80
2023/08/17 03:23:24;;;;;;;10.32;7.43;;;21.20;99.90;;;;;;6215873;23;20414;-80
2023/08/17 03:25:53;;;;;;;10.68;7.43;;;21.20;99.90;;;;;;6193364;23;20020;-80
2023/08/17 03:28:20;;;;;;;10.57;7.68;;;21.20;99.90;;;;;;6242667;23;20103;-80
2023/08/17 03:30:47;;;;;;;11.32;7.68;;;21.20;99.90;;;;;;6216346;23;20020;-80
2023/08/17 03:33:14;;;;;;;9.65;8.00;;;21.20;99.90;;;;;;6215769;23;20724;-80
2023/08/17 03:35:42;;;;;;;9.77;7.63;;;21.20;99.90;;;;;;6217218;23;20016;-80
2023/08/17 03:38:09;;;;;;;10.73;8.27;;;21.20;99.90;;;;;;6192782;23;20031;-80
2023/08/17 03:40:36;;;;;;;10.80;7.35;;;21.20;99.90;;;;;;6217622;23;20456;-80
2023/08/17 03:43:03;;;;;;;12.43;8.20;;;21.20;99.90;;;;;;6191253;23;20746;-80
2023/08/17 03:45:31;;;;;;;11.43;8.38;;;21.10;99.90;;;;;;6216396;23;20036;-80
2023/08/17 03:47:58;;;;;;;11.30;8.15;;;21.10;99.90;;;;;;6217410;23;20017;-80
2023/08/17 03:50:28;;;;;;;11.50;7.78;;;21.20;99.90;;;;;;6192394;23;20023;-80
2023/08/17 03:52:55;;;;;;;12.00;8.18;;;21.20;99.90;;;;;;6217066;23;20043;-80
2023/08/17 03:55:22;;;;;;;11.65;8.48;;;21.20;99.90;;;;;;6217329;23;20435;-80
2023/08/17 03:57:50;;;;;;;9.90;7.60;;;21.10;99.90;;;;;;6216612;23;20024;-80
2023/08/17 04:00:17;;;;;;;11.63;8.60;;;21.10;99.90;;;;;;6217397;23;20024;-80
2023/08/17 04:02:44;;;;;;;11.40;8.02;;;21.10;99.90;;;;;;6217859;23;20031;-80
2023/08/17 04:05:16;;;;;;;13.05;8.40;;;21.10;99.90;;;;;;6194532;23;20801;-80
2023/08/17 04:07:43;;;;;;;11.23;8.35;;;21.10;99.90;;;;;;6218929;23;20016;-80
2023/08/17 04:10:10;;;;;;;14.40;8.77;;;21.20;99.90;;;;;;6194224;23;20035;-80
2023/08/17 04:12:38;;;;;;;13.18;8.68;;;21.20;99.90;;;;;;6217091;22;20454;-80
2023/08/17 04:15:05;;;;;;;13.07;7.97;;;21.20;99.90;;;;;;6194943;23;20020;-79
2023/08/17 04:17:32;;;;;;;11.73;7.60;;;21.20;99.90;;;;;;6218571;23;20494;-80
2023/08/17 04:20:00;;;;;;;10.88;7.82;;;21.20;99.90;;;;;;6218640;23;20489;-80
2023/08/17 04:22:28;;;;;;;13.05;8.50;;;21.20;99.90;;;;;;6218291;23;20020;-80
2023/08/17 04:24:55;;;;;;;13.07;8.63;;;21.20;99.90;;;;;;6192982;23;20024;-80
2023/08/17 04:27:24;;;;;;;12.40;9.15;;;21.20;99.90;;;;;;6217221;23;20417;-80
2023/08/17 04:29:51;;;;;;;11.38;8.48;;;21.20;99.90;;;;;;6193585;23;20059;-80
2023/08/17 04:32:19;;;;;;;13.85;8.05;;;21.20;99.90;;;;;;6215899;23;20028;-80
2023/08/17 04:34:46;;;;;;;10.95;8.23;;;21.20;99.90;;;;;;6218544;23;20031;-80
2023/08/17 04:37:15;;;;;;;13.75;8.55;;;21.30;99.90;;;;;;6220688;23;20078;-80
2023/08/17 04:39:43;;;;;;;13.05;8.70;;;21.30;99.90;;;;;;6218639;23;20634;-80
2023/08/17 04:42:16;;;;;;;13.95;8.90;;;21.30;99.90;;;;;;6218714;23;20024;-80
2023/08/17 04:44:44;;;;;;;15.90;8.70;;;21.40;99.90;;;;;;6219121;23;20103;-80
2023/08/17 04:47:11;;;;;;;12.68;9.02;;;21.40;99.90;;;;;;6220111;23;20395;-80
2023/08/17 04:49:38;;;;;;;14.60;9.20;;;21.40;99.90;;;;;;6218710;23;20359;-80
2023/08/17 04:52:05;;;;;;;12.13;9.30;;;21.50;99.90;;;;;;6194588;23;20012;-80
2023/08/17 04:54:33;;;;;;;14.02;9.38;;;21.50;99.90;;;;;;6219236;23;20071;-80
2023/08/17 04:57:00;;;;;;;12.57;9.48;;;21.40;99.90;;;;;;6193970;23;20094;-80
2023/08/17 04:59:28;;;;;;;13.52;9.32;;;21.50;99.90;;;;;;6218998;23;20023;-80
2023/08/17 05:01:55;;;;;;;12.02;9.00;;;21.50;99.90;;;;;;6194272;23;20023;-80
2023/08/17 05:04:22;;;;;;;14.57;9.52;;;21.50;99.90;;;;;;6218879;23;20363;-80
2023/08/17 05:06:49;;;;;;;16.58;10.27;;;21.50;99.90;;;;;;6218873;23;20628;-80
2023/08/17 05:09:16;;;;;;;12.90;10.25;;;21.50;99.90;;;;;;6218103;23;20020;-80
2023/08/17 05:11:43;;;;;;;13.45;8.95;;;21.50;99.90;;;;;;6218060;23;20332;-79
2023/08/17 05:14:11;;;;;;;14.13;9.45;;;21.50;99.90;;;;;;6192942;23;20068;-79
2023/08/17 05:16:38;;;;;;;12.90;9.05;;;21.50;99.90;;;;;;6216250;23;20666;-78
2023/08/17 05:19:05;;;;;;;14.93;9.50;;;21.50;99.90;;;;;;6217335;23;20016;-79
2023/08/17 05:21:32;;;;;;;13.75;9.68;;;21.60;99.90;;;;;;6216080;23;20428;-79
2023/08/17 05:23:59;;;;;;;14.93;10.52;;;21.60;99.90;;;;;;6217373;23;20110;-78
2023/08/17 05:26:27;;;;;;;15.30;9.48;;;21.70;99.90;;;;;;6192354;23;20111;-78
2023/08/17 05:28:54;;;;;;;14.07;9.82;;;21.90;99.90;;;;;;6192930;23;20074;-78
2023/08/17 05:31:23;;;;;;;15.43;9.60;;;22.00;99.90;;;;;;6190382;23;20070;-78
2023/08/17 05:33:52;;;;;;;13.70;9.73;;;22.00;99.90;;;;;;6190732;23;20051;-79
2023/08/17 05:36:21;;;;;;;14.00;9.25;;;22.10;99.90;;;;;;6216921;23;20086;-79
2023/08/17 05:38:48;;;;;;;13.20;8.77;;;22.10;99.90;;;;;;6215381;23;20020;-79
2023/08/17 05:41:17;;;;;;;11.60;8.88;;;22.10;99.90;;;;;;6217002;23;20024;-79
2023/08/17 05:43:44;;;;;;;10.95;8.75;;;22.10;99.90;;;;;;6216854;23;20028;-79
2023/08/17 05:46:11;;;;;;;11.10;8.35;;;22.00;99.90;;;;;;6215220;23;20569;-80
2023/08/17 05:48:39;;;;;;;11.23;8.10;;;21.90;99.90;;;;;;6215250;23;20019;-76
2023/08/17 05:51:06;;;;;;;12.82;8.55;;;22.00;99.90;;;;;;6217046;23;20018;-78
2023/08/17 05:53:33;;;;;;;11.38;8.77;;;22.00;99.90;;;;;;6213512;23;20511;-79
2023/08/17 05:56:00;;;;;;;11.00;7.63;;;22.10;99.90;;;;;;6181670;23;20048;-78
2023/08/17 05:58:28;;;;;;;10.75;8.45;;;22.10;99.90;;;;;;6210235;23;20399;-78
2023/08/17 06:01:07;;;;;;;11.43;8.30;;;22.20;99.90;;;;;;6208928;23;20351;-79
2023/08/17 06:03:35;;;;;;;9.88;8.07;;;22.30;99.90;;;;;;6233583;23;20024;-79
2023/08/17 06:06:03;;;;;;;12.10;8.35;;;22.40;99.90;;;;;;6206288;23;20083;-78
2023/08/17 06:08:31;;;;;;;14.65;9.13;;;22.40;99.90;;;;;;6233621;23;20016;-77
2023/08/17 06:10:58;;;;;;;11.57;8.23;;;22.30;99.90;;;;;;6184374;23;20275;-78
2023/08/17 06:13:25;;;;;;;10.02;8.45;;;22.40;99.90;;;;;;6211729;23;20067;-77
2023/08/17 06:15:52;;;;;;;11.00;9.02;;;22.40;99.90;;;;;;6205262;23;20076;-79
2023/08/17 06:18:21;;;;;;;9.85;8.52;;;22.40;99.90;;;;;;6184585;23;20074;-78
2023/08/17 06:20:51;;;;;;;10.93;8.57;;;22.40;99.90;;;;;;6208256;23;20030;-79
2023/08/17 06:23:20;;;;;;;11.13;7.93;;;22.40;99.90;;;;;;6233647;23;20111;-77
2023/08/17 06:25:47;;;;;;;12.50;8.93;;;22.40;99.90;;;;;;6232333;23;20023;-79
2023/08/17 06:28:14;;;;;;;11.23;8.45;;;22.40;99.90;;;;;;6237041;23;20023;-77
2023/08/17 06:30:41;;;;;;;10.88;8.90;;;22.40;99.90;;;;;;6233614;23;20043;-78
2023/08/17 06:33:09;;;;;;;10.15;9.02;;;22.40;99.90;;;;;;6207680;23;20024;-80
2023/08/17 06:35:36;;;;;;;10.05;8.20;;;22.40;99.90;;;;;;6234989;23;20020;-78
2023/08/17 06:38:03;;;;;;;12.45;8.27;;;22.50;99.90;;;;;;6210970;23;20047;-78
2023/08/17 06:40:30;;;;;;;10.90;7.93;;;22.50;99.90;;;;;;6179880;23;20400;-78
2023/08/17 06:42:57;;;;;;;10.13;8.55;;;22.50;99.90;;;;;;6184378;23;20066;-77
2023/08/17 06:45:24;;;;;;;11.65;8.07;;;22.50;99.90;;;;;;6183404;23;20165;-79
2023/08/17 06:47:51;;;;;;;12.98;9.43;;;22.50;99.90;;;;;;6238465;23;20020;-79
2023/08/17 06:50:19;;;;;;;12.55;8.57;;;22.50;99.90;;;;;;6184123;23;20016;-79
2023/08/17 06:52:46;;;;;;;12.88;9.13;;;22.50;99.90;;;;;;6210655;23;20020;-79
2023/08/17 06:55:13;;;;;;;11.50;8.57;;;22.50;99.90;;;;;;6185975;23;20048;-79
2023/08/17 06:57:40;;;;;;;11.13;8.82;;;22.50;99.90;;;;;;6236505;23;20016;-78
2023/08/17 07:00:08;;;;;;;9.90;8.48;;;22.60;99.90;;;;;;6206220;23;20451;-78
2023/08/17 07:02:35;;;;;;;10.75;9.23;;;22.60;99.90;;;;;;6210557;23;20021;-79
2023/08/17 07:05:20;;;;;;;11.18;7.88;;;22.70;99.90;;;;;;6206283;23;20024;-79
2023/08/17 07:07:47;;;;;;;12.88;9.25;;;22.80;99.90;;;;;;6211612;23;20028;-79
2023/08/17 07:10:14;;;;;;;11.10;7.60;;;22.80;99.90;;;;;;6185394;23;20022;-79
2023/08/17 07:12:41;;;;;;;11.73;8.70;;;22.90;99.90;;;;;;6185599;23;20016;-79
2023/08/17 07:15:08;;;;;;;13.65;8.20;;;22.90;99.90;;;;;;6212076;23;20074;-79
2023/08/17 07:17:36;;;;;;;10.30;7.68;;;23.00;99.90;;;;;;6209686;23;20016;-80
2023/08/17 07:20:07;;;;;;;10.10;7.32;;;23.10;99.90;;;;;;6188560;23;20024;-80
2023/08/17 07:22:47;;;;;;;10.27;7.32;;;23.20;99.90;;;;;;6213678;23;20125;-80
2023/08/17 07:25:14;;;;;;;9.13;6.95;;;23.80;99.90;;;;;;6212058;23;20020;-79
2023/08/17 07:27:42;;;;;;;9.68;6.72;;;23.90;99.90;;;;;;6186015;23;20024;-79
2023/08/17 07:30:10;;;;;;;9.05;6.43;;;24.30;99.90;;;;;;6210907;23;20489;-79
2023/08/17 07:32:37;;;;;;;8.35;6.35;;;24.60;99.90;;;;;;6239758;23;20448;-82
2023/08/17 07:35:05;;;;;;;7.10;5.45;;;24.80;99.90;;;;;;6186552;23;20031;-78
2023/08/17 07:37:33;;;;;;;6.18;5.25;;;24.70;99.90;;;;;;6212360;23;20020;-79
2023/08/17 07:40:03;;;;;;;7.50;5.70;;;24.60;99.90;;;;;;6240768;23;20479;-80
2023/08/17 07:42:31;;;;;;;6.95;5.93;;;24.50;99.90;;;;;;6190045;23;20384;-79
2023/08/17 07:44:58;;;;;;;8.38;5.30;;;24.60;99.90;;;;;;6214923;23;20032;-79
2023/08/17 07:47:26;;;;;;;7.28;4.75;;;24.80;99.90;;;;;;6184511;23;20067;-80
2023/08/17 07:49:53;;;;;;;6.22;4.15;;;24.80;99.90;;;;;;6215343;23;20031;-80
2023/08/17 07:52:20;;;;;;;7.03;4.78;;;24.90;99.90;;;;;;6188845;23;20166;-80
2023/08/17 07:54:47;;;;;;;6.30;4.40;;;24.90;99.90;;;;;;6215837;23;20012;-78
2023/08/17 07:57:15;;;;;;;5.72;4.70;;;25.10;99.90;;;;;;6188415;23;20048;-81
2023/08/17 07:59:42;;;;;;;5.30;4.65;;;24.90;99.90;;;;;;6214829;23;20114;-80
2023/08/17 08:02:09;;;;;;;6.32;4.35;;;24.70;99.90;;;;;;6213617;23;20074;-80
2023/08/17 08:04:36;;;;;;;6.88;4.05;;;24.60;99.90;;;;;;6186427;23;20016;-78
2023/08/17 08:07:03;;;;;;;5.47;4.80;;;24.80;99.90;;;;;;6189643;23;20106;-81
2023/08/17 08:09:30;;;;;;;6.93;4.75;;;25.00;99.90;;;;;;6189787;23;20020;-81
2023/08/17 08:11:57;;;;;;;6.00;4.60;;;25.20;99.90;;;;;;6187092;23;20020;-81
2023/08/17 08:14:24;;;;;;;5.78;4.38;;;25.30;99.90;;;;;;6188545;23;20039;-80
2023/08/17 08:16:51;;;;;;;3.95;2.83;;;25.30;99.90;;;;;;6183920;23;20107;-80
2023/08/17 08:19:18;;;;;;;7.25;3.50;;;25.40;99.90;;;;;;6214573;23;20126;-80
2023/08/17 08:21:46;;;;;;;3.78;2.95;;;25.60;99.10;;;;;;6211730;23;20028;-80
2023/08/17 08:24:13;;;;;;;4.22;3.22;;;25.70;98.80;;;;;;6188047;23;20470;-80
2023/08/17 08:26:57;;;;;;;5.45;3.00;;;25.70;97.90;;;;;;6210534;23;20028;-83
2023/08/17 08:29:27;;;;;;;3.55;2.58;;;25.80;98.80;;;;;;6214186;23;20058;-79
2023/08/17 08:31:54;;;;;;;3.58;3.28;;;25.60;98.50;;;;;;6187084;23;20024;-81
2023/08/17 08:34:21;;;;;;;3.55;2.85;;;25.40;98.80;;;;;;6186432;23;20024;-80
2023/08/17 08:36:48;;;;;;;3.67;3.00;;;25.20;97.70;;;;;;6206232;23;20067;-80
2023/08/17 08:39:16;;;;;;;3.90;3.05;;;25.10;98.20;;;;;;6181205;23;20558;-80
2023/08/17 08:41:43;;;;;;;5.13;3.28;;;25.10;98.30;;;;;;6179782;23;20032;-80
2023/08/17 08:44:10;;;;;;;4.72;2.97;;;25.10;97.30;;;;;;6179822;23;20025;-80
2023/08/17 08:46:43;;;;;;;3.70;3.28;;;25.50;98.40;;;;;;6205520;23;20084;-79
2023/08/17 08:49:11;;;;;;;4.45;3.15;;;25.80;97.80;;;;;;6201648;23;20020;-80
2023/08/17 08:51:44;;;;;;;4.10;3.13;;;25.80;97.70;;;;;;6204294;23;20104;-81
2023/08/17 08:54:21;;;;;;;3.72;3.20;;;25.70;99.10;;;;;;6155537;23;20031;-80
2023/08/17 08:56:59;;;;;;;3.28;2.58;;;25.50;97.30;;;;;;6180132;23;20623;-80
2023/08/17 08:59:28;;;;;;;5.45;3.22;;;25.40;98.50;;;;;;6207570;23;20028;-81
2023/08/17 09:01:58;;;;;;;3.53;3.22;;;25.40;98.40;;;;;;6156262;23;20053;-80
2023/08/17 09:04:26;;;;;;;4.20;3.30;;;25.30;99.20;;;;;;6204548;23;20095;-82
2023/08/17 09:06:54;;;;;;;4.28;3.20;;;25.20;99.30;;;;;;6209741;23;20029;-81
2023/08/17 09:09:23;;;;;;;5.97;3.78;;;25.10;99.30;;;;;;6213007;23;20411;-80
2023/08/17 09:11:56;;;;;;;5.43;3.63;;;25.10;99.00;;;;;;6237551;23;20027;-81
2023/08/17 09:14:23;;;;;;;5.80;3.80;;;25.00;99.50;;;;;;6211246;23;20486;-79
2023/08/17 09:16:50;;;;;;;5.25;3.88;;;25.10;99.90;;;;;;6211832;23;20046;-80
2023/08/17 09:19:18;;;;;;;4.75;3.97;;;25.20;99.90;;;;;;6209324;23;20023;-80
2023/08/17 09:21:46;;;;;;;3.47;3.10;;;25.20;99.70;;;;;;6185457;23;20383;-81
2023/08/17 09:24:17;;;;;;;3.80;3.50;;;25.30;99.90;;;;;;6211131;23;20031;-80
2023/08/17 09:26:44;;;;;;;3.92;3.28;;;25.30;99.90;;;;;;6210238;23;20031;-80
2023/08/17 09:29:19;;;;;;;3.83;3.33;;;25.30;99.90;;;;;;6235813;23;20024;-79
2023/08/17 09:31:47;;;;;;;8.70;4.05;;;25.30;99.90;;;;;;6240127;23;20051;-80
2023/08/17 09:34:19;;;;;;;5.93;4.18;;;25.40;99.80;;;;;;6212110;23;20115;-81
2023/08/17 09:36:47;;;;;;;4.15;3.50;;;25.40;99.90;;;;;;6213304;23;20111;-80
2023/08/17 09:39:18;;;;;;;5.35;3.72;;;25.60;99.90;;;;;;6212339;23;20410;-82
2023/08/17 09:41:45;;;;;;;3.63;3.17;;;25.70;99.90;;;;;;6211481;23;20020;-80
2023/08/17 09:44:12;;;;;;;5.47;4.03;;;25.70;99.10;;;;;;6211228;23;20024;-79
2023/08/17 09:46:43;;;;;;;4.32;3.40;;;25.80;99.90;;;;;;6212029;23;20384;-79
2023/08/17 09:49:10;;;;;;;3.92;2.92;;;26.00;99.70;;;;;;6237707;23;20091;-82
2023/08/17 09:51:37;;;;;;;3.55;3.22;;;26.20;98.90;;;;;;6210002;23;20453;-81
2023/08/17 09:54:21;;;;;;;4.67;3.73;;;26.20;97.60;;;;;;6236925;23;20016;-83
2023/08/17 09:56:52;;;;;;;5.18;3.30;;;26.10;97.40;;;;;;6211103;23;20526;-80
2023/08/17 09:59:20;;;;;;;4.15;3.08;;;26.00;97.80;;;;;;6210008;23;20040;-80
2023/08/17 10:01:49;;;;;;;4.90;3.30;;;26.00;98.10;;;;;;6212034;23;20028;-80
2023/08/17 10:04:23;;;;;;;3.28;2.97;;;26.00;97.90;;;;;;6184618;23;20035;-79
2023/08/17 10:06:59;;;;;;;5.82;3.15;;;26.00;98.00;;;;;;6210139;23;20024;-79
2023/08/17 10:09:36;;;;;;;4.70;3.28;;;26.00;98.70;;;;;;6158433;23;20024;-82
2023/08/17 10:12:12;;;;;;;6.70;3.30;;;26.00;97.50;;;;;;6212526;23;20040;-80
2023/08/17 10:14:46;;;;;;;3.95;3.05;;;26.00;97.50;;;;;;6208695;23;20016;-78
2023/08/17 10:17:20;;;;;;;4.47;2.85;;;26.00;97.40;;;;;;6204528;23;20024;-80
2023/08/17 10:19:53;;;;;;;4.40;3.25;;;26.00;97.50;;;;;;6210112;23;20062;-80
2023/08/17 10:22:44;;;;;;;3.28;2.72;;;26.10;97.10;;;;;;6212358;23;20406;-83
2023/08/17 10:25:13;;;;;;;4.28;3.03;;;26.20;97.40;;;;;;6208145;23;20368;-83
2023/08/17 10:27:41;;;;;;;3.55;2.90;;;26.20;97.10;;;;;;6206384;23;20444;-80
2023/08/17 10:30:12;;;;;;;3.10;2.75;;;26.30;96.90;;;;;;6211418;23;20016;-80
2023/08/17 10:32:44;;;;;;;3.78;2.72;;;26.40;96.50;;;;;;6185350;23;20016;-81
2023/08/17 10:35:14;;;;;;;4.10;2.95;;;26.50;96.40;;;;;;6210551;23;20070;-83
2023/08/17 10:37:42;;;;;;;4.45;2.92;;;26.50;95.20;;;;;;6171734;23;20528;-80
2023/08/17 10:40:10;;;;;;;4.45;3.05;;;26.40;95.30;;;;;;6144602;23;20515;-82
2023/08/17 10:42:41;;;;;;;3.50;2.55;;;26.60;95.60;;;;;;6173183;23;20025;-80
2023/08/17 10:45:44;;;;;;;3.72;2.85;;;26.70;95.20;;;;;;6173899;23;20045;-82
2023/08/17 10:48:14;;;;;;;3.53;2.55;;;26.80;94.10;;;;;;6135971;23;20094;-83
2023/08/17 10:51:00;;;;;;;5.85;2.83;;;26.70;93.50;;;;;;6124153;23;20029;-81
2023/08/17 10:53:33;;;;;;;4.13;2.45;;;26.70;93.90;;;;;;6148052;23;20021;-79
2023/08/17 10:56:00;;;;;;;3.08;2.78;;;26.70;93.40;;;;;;6172311;23;20025;-80
2023/08/17 10:58:32;;;;;;;2.65;2.33;;;26.80;93.20;;;;;;6147478;23;20017;-81
2023/08/17 11:01:00;;;;;;;4.13;2.63;;;26.80;92.80;;;;;;6124497;23;20123;-81
2023/08/17 11:03:28;;;;;;;3.35;2.58;;;26.80;93.10;;;;;;6148676;23;20774;-80
2023/08/17 11:05:57;;;;;;;3.97;2.03;;;26.80;92.80;;;;;;6173419;23;20025;-80
2023/08/17 11:08:55;;;;;;;4.22;2.60;;;26.70;92.50;;;;;;6124189;23;20024;-79
2023/08/17 11:11:23;;;;;;;3.05;2.70;;;26.70;92.50;;;;;;6174425;23;20045;-80
2023/08/17 11:13:53;;;;;;;3.42;2.80;;;26.60;92.20;;;;;;6147162;23;20032;-80
2023/08/17 11:16:23;;;;;;;3.10;2.65;;;26.60;92.80;;;;;;6210999;23;20031;-81
2023/08/17 11:55:56;;;;;;;4.53;3.33;;;26.80;92.90;;;;;;6177841;23;20008;-81
2023/08/17 11:58:46;;;;;;;3.97;3.10;;;27.10;93.50;;;;;;6206840;23;20021;-81
2023/08/17 12:01:15;;;;;;;3.60;2.67;;;27.10;92.70;;;;;;6178798;23;20031;-80
2023/08/17 12:03:44;;;;;;;4.45;3.08;;;27.10;91.80;;;;;;6180015;23;20321;-80
2023/08/17 12:06:12;;;;;;;4.15;3.50;;;27.10;92.70;;;;;;6157211;23;20024;-82
2023/08/17 12:08:47;;;;;;;3.60;2.63;;;27.10;92.40;;;;;;6158465;23;20356;-81
2023/08/17 12:11:17;;;;;;;3.55;3.15;;;27.30;92.90;;;;;;6178553;23;20020;-81
2023/08/17 12:13:54;;;;;;;6.20;3.65;;;27.50;92.10;;;;;;6181417;23;20044;-83
2023/08/17 12:16:23;;;;;;;3.92;2.75;;;27.50;92.00;;;;;;6180457;23;20044;-80
2023/08/17 12:18:54;;;;;;;2.90;2.55;;;27.60;91.50;;;;;;6182304;23;20043;-80
2023/08/17 12:21:22;;;;;;;3.95;2.90;;;27.60;91.50;;;;;;6157069;23;20823;-80
2023/08/17 12:23:50;;;;;;;6.53;3.60;;;27.60;91.00;;;;;;6206548;23;20031;-80
2023/08/17 12:26:21;;;;;;;3.47;3.10;;;27.80;91.50;;;;;;6181096;23;20028;-80
2023/08/17 12:28:52;;;;;;;4.90;3.50;;;27.80;91.20;;;;;;6207708;23;20025;-81
2023/08/17 12:31:23;;;;;;;4.53;3.60;;;27.90;90.80;;;;;;6155828;23;20021;-80
2023/08/17 12:33:51;;;;;;;4.85;3.25;;;27.90;91.00;;;;;;6157965;23;20028;-81
2023/08/17 12:36:20;;;;;;;3.97;3.15;;;28.00;91.20;;;;;;6180415;23;20047;-82
2023/08/17 12:38:48;;;;;;;6.20;3.88;;;28.00;91.50;;;;;;6182324;23;20044;-82
2023/08/17 12:41:16;;;;;;;6.32;3.47;;;28.00;91.00;;;;;;6184102;23;20017;-81
2023/08/17 12:43:43;;;;;;;4.60;3.38;;;28.00;91.70;;;;;;6157125;23;20076;-82
2023/08/17 12:46:10;;;;;;;4.43;3.80;;;28.10;91.30;;;;;;6181851;23;20048;-80
2023/08/17 12:48:42;;;;;;;3.63;3.33;;;28.10;90.90;;;;;;6153501;23;20025;-82
2023/08/17 12:51:09;;;;;;;3.78;3.33;;;28.00;90.90;;;;;;6177389;23;20044;-82
2023/08/17 12:53:36;;;;;;;5.18;3.40;;;28.00;91.00;;;;;;6165177;23;20044;-83
2023/08/17 12:56:04;;;;;;;4.70;3.53;;;27.90;90.90;;;;;;6205522;23;20017;-80
2023/08/17 12:58:31;;;;;;;4.80;4.18;;;28.00;91.20;;;;;;6213964;23;20040;-82
2023/08/17 13:00:58;;;;;;;3.78;3.40;;;28.10;90.90;;;;;;6210593;23;20024;-78
2023/08/17 13:03:25;;;;;;;6.20;3.95;;;28.10;90.80;;;;;;6213507;23;20027;-82
2023/08/17 13:05:52;;;;;;;5.35;3.97;;;28.20;90.30;;;;;;6210019;23;20462;-79
2023/08/17 13:08:20;;;;;;;5.10;3.58;;;28.00;88.90;;;;;;6212451;23;20422;-81
2023/08/17 13:10:47;;;;;;;6.38;3.35;;;28.00;90.00;;;;;;6211405;23;20097;-79
2023/08/17 13:13:14;;;;;;;4.05;3.28;;;28.00;91.00;;;;;;6211187;23;20016;-78
2023/08/17 13:15:42;;;;;;;4.82;3.47;;;28.10;90.90;;;;;;6211253;23;20020;-82
2023/08/17 13:18:09;;;;;;;3.92;3.45;;;28.00;91.10;;;;;;6187790;23;20016;-81
2023/08/17 13:20:37;;;;;;;4.38;3.58;;;27.90;90.60;;;;;;6237542;23;20024;-81
2023/08/17 13:23:05;;;;;;;4.00;3.15;;;28.00;90.60;;;;;;6215211;23;20024;-82
2023/08/17 13:25:32;;;;;;;3.83;2.97;;;28.00;90.30;;;;;;6209352;23;20070;-79
2023/08/17 13:27:59;;;;;;;3.47;3.00;;;28.10;90.50;;;;;;6185218;23;20612;-78
2023/08/17 13:30:26;;;;;;;4.70;3.55;;;28.10;91.00;;;;;;6211247;23;20024;-80
2023/08/17 13:32:54;;;;;;;4.72;3.05;;;27.90;90.00;;;;;;6211259;23;20545;-81
2023/08/17 13:35:21;;;;;;;4.70;3.42;;;28.00;90.80;;;;;;6210152;23;20106;-79
2023/08/17 13:37:53;;;;;;;4.90;3.08;;;28.00;90.60;;;;;;6239040;23;20398;-80
2023/08/17 13:40:21;;;;;;;4.43;3.08;;;27.90;90.10;;;;;;6209718;23;20024;-79